createdAt,value
2023-04-06T00:01:34.711Z,12.21
2023-04-06T00:02:37.305Z,12.05
2023-04-06T00:03:40.003Z,12.07
2023-04-06T00:04:42.599Z,12.07
2023-04-06T00:05:45.315Z,12.09
2023-04-06T00:06:47.874Z,12.09
2023-04-06T00:07:50.890Z,12.09
2023-04-06T00:08:53.745Z,12.09
2023-04-06T00:09:56.095Z,12.09
2023-04-06T00:10:58.488Z,12.09
2023-04-06T00:12:00.788Z,12.08
2023-04-06T00:13:03.294Z,12.09
2023-04-06T00:14:05.654Z,12.08
2023-04-06T00:15:09.827Z,12.09
2023-04-06T00:16:13.136Z,12.09
2023-04-06T00:17:15.569Z,12.08
2023-04-06T00:18:17.886Z,12.11
2023-04-06T00:19:20.182Z,12.10
2023-04-06T00:20:24.181Z,12.11
2023-04-06T00:21:27.084Z,12.11
2023-04-06T00:22:29.537Z,12.10
2023-04-06T00:23:32.191Z,12.10
2023-04-06T00:24:35.061Z,12.10
2023-04-06T00:25:39.223Z,12.09
2023-04-06T00:26:42.288Z,12.09
2023-04-06T00:27:45.120Z,12.10
2023-04-06T00:28:47.423Z,12.10
2023-04-06T00:29:50.811Z,12.11
2023-04-06T00:30:54.258Z,12.10
2023-04-06T00:31:56.925Z,12.10
2023-04-06T00:32:59.527Z,12.11
2023-04-06T00:34:02.978Z,12.11
2023-04-06T00:35:05.925Z,12.11
2023-04-06T00:36:10.310Z,12.10
2023-04-06T00:37:12.734Z,12.09
2023-04-06T00:38:15.736Z,12.08
2023-04-06T00:39:20.458Z,12.09
2023-04-06T00:40:23.111Z,12.08
2023-04-06T00:41:25.990Z,12.08
2023-04-06T00:42:28.947Z,12.08
2023-04-06T00:43:32.719Z,12.07
2023-04-06T00:44:35.149Z,12.08
2023-04-06T00:45:38.948Z,12.10
2023-04-06T00:46:41.966Z,12.08
2023-04-06T00:47:44.352Z,12.07
2023-04-06T00:48:47.004Z,12.06
2023-04-06T00:49:49.641Z,12.07
2023-04-06T00:50:52.646Z,12.07
2023-04-06T00:51:54.956Z,12.09
2023-04-06T00:52:57.249Z,12.08
2023-04-06T00:54:01.387Z,12.08
2023-04-06T00:55:07.683Z,12.10
2023-04-06T00:56:12.975Z,12.09
2023-04-06T00:57:20.029Z,12.09
2023-04-06T00:58:24.873Z,12.10
2023-04-06T00:59:29.392Z,12.10
2023-04-06T01:00:32.979Z,12.11
2023-04-06T01:01:35.690Z,12.11
2023-04-06T01:02:40.360Z,12.10
2023-04-06T01:03:43.984Z,12.10
2023-04-06T01:04:47.076Z,12.10
2023-04-06T01:05:52.345Z,12.09
2023-04-06T01:06:56.859Z,12.09
2023-04-06T01:08:01.719Z,12.09
2023-04-06T01:09:04.847Z,12.10
2023-04-06T01:10:08.442Z,12.09
2023-04-06T01:11:11.281Z,12.09
2023-04-06T01:12:14.744Z,12.08
2023-04-06T01:13:17.078Z,12.09
2023-04-06T01:14:21.828Z,12.07
2023-04-06T01:15:30.255Z,12.07
2023-04-06T01:16:33.179Z,12.05
2023-04-06T01:17:43.280Z,12.04
2023-04-06T01:18:47.479Z,12.04
2023-04-06T01:19:51.632Z,12.04
2023-04-06T01:20:55.867Z,12.03
2023-04-06T01:22:00.019Z,12.02
2023-04-06T01:23:08.048Z,12.03
2023-04-06T01:24:11.623Z,12.02
2023-04-06T01:25:15.819Z,12.03
2023-04-06T01:26:20.152Z,12.03
2023-04-06T01:27:22.969Z,12.03
2023-04-06T01:28:26.632Z,12.03
2023-04-06T01:29:30.772Z,12.04
2023-04-06T01:30:34.339Z,12.03
2023-04-06T01:31:40.278Z,12.04
2023-04-06T01:32:42.798Z,12.05
2023-04-06T01:33:45.769Z,12.06
2023-04-06T01:34:49.957Z,12.06
2023-04-06T01:35:52.354Z,12.07
2023-04-06T01:36:56.007Z,12.07
2023-04-06T01:38:00.173Z,12.08
2023-04-06T01:39:04.291Z,12.09
2023-04-06T01:40:10.348Z,12.10
2023-04-06T01:41:14.488Z,12.11
2023-04-06T01:42:22.733Z,12.11
2023-04-06T01:43:25.083Z,12.11
2023-04-06T01:44:44.546Z,12.12
2023-04-06T01:45:48.613Z,12.15
2023-04-06T01:46:53.170Z,12.12
2023-04-06T01:47:55.533Z,12.14
2023-04-06T01:48:59.582Z,12.14
2023-04-06T01:50:14.039Z,12.14
2023-04-06T01:51:18.170Z,12.14
2023-04-06T01:52:22.904Z,12.15
2023-04-06T01:53:27.139Z,12.15
2023-04-06T01:54:31.274Z,12.16
2023-04-06T01:55:47.438Z,12.16
2023-04-06T01:56:55.851Z,12.16
2023-04-06T01:57:59.980Z,12.16
2023-04-06T01:59:04.154Z,12.15
2023-04-06T02:00:11.341Z,12.14
2023-04-06T02:01:16.563Z,12.13
2023-04-06T02:02:20.702Z,12.13
2023-04-06T02:03:24.767Z,12.13
2023-04-06T02:04:28.924Z,12.14
2023-04-06T02:05:34.669Z,12.14
2023-04-06T02:06:37.918Z,12.14
2023-04-06T02:07:41.097Z,12.13
2023-04-06T02:08:43.951Z,12.15
2023-04-06T02:09:46.593Z,12.16
2023-04-06T02:10:51.195Z,12.16
2023-04-06T02:11:55.858Z,12.17
2023-04-06T02:12:58.349Z,12.18
2023-04-06T02:14:01.926Z,12.18
2023-04-06T02:15:07.929Z,12.19
2023-04-06T02:16:12.714Z,12.19
2023-04-06T02:17:15.460Z,12.19
2023-04-06T02:18:18.174Z,12.20
2023-04-06T02:19:20.639Z,12.20
2023-04-06T02:20:24.684Z,12.21
2023-04-06T02:21:26.980Z,12.22
2023-04-06T02:22:29.271Z,12.22
2023-04-06T02:23:31.559Z,12.22
2023-04-06T02:24:33.816Z,12.23
2023-04-06T02:25:36.092Z,12.23
2023-04-06T02:26:38.957Z,12.23
2023-04-06T02:27:41.261Z,12.23
2023-04-06T02:28:43.687Z,12.24
2023-04-06T02:29:45.956Z,12.24
2023-04-06T02:30:49.045Z,12.23
2023-04-06T02:31:51.815Z,12.24
2023-04-06T02:32:55.207Z,12.24
2023-04-06T02:33:58.749Z,12.24
2023-04-06T02:35:01.698Z,12.24
2023-04-06T02:36:07.286Z,12.23
2023-04-06T02:37:09.761Z,12.24
2023-04-06T02:38:12.160Z,12.24
2023-04-06T02:39:14.584Z,12.23
2023-04-06T02:40:17.852Z,12.26
2023-04-06T02:41:20.812Z,12.26
2023-04-06T02:42:23.404Z,12.25
2023-04-06T02:43:26.761Z,12.25
2023-04-06T02:44:33.741Z,12.26
2023-04-06T02:45:36.121Z,12.26
2023-04-06T02:46:39.731Z,12.27
2023-04-06T02:47:42.997Z,12.26
2023-04-06T02:48:46.178Z,12.26
2023-04-06T02:49:50.142Z,12.26
2023-04-06T02:50:52.845Z,12.25
2023-04-06T02:51:55.124Z,12.25
2023-04-06T02:52:59.277Z,12.24
2023-04-06T02:54:01.564Z,12.24
2023-04-06T02:55:05.328Z,12.24
2023-04-06T02:56:08.576Z,12.24
2023-04-06T02:57:22.183Z,12.23
2023-04-06T02:58:24.724Z,12.24
2023-04-06T02:59:28.922Z,12.21
2023-04-06T03:00:33.472Z,12.22
2023-04-06T03:01:35.830Z,12.21
2023-04-06T03:02:39.798Z,12.21
2023-04-06T03:03:44.251Z,12.21
2023-04-06T03:04:48.658Z,12.20
2023-04-06T03:05:52.818Z,12.19
2023-04-06T03:06:58.763Z,12.19
2023-04-06T03:08:03.566Z,12.20
2023-04-06T03:09:08.087Z,12.20
2023-04-06T03:10:13.158Z,12.21
2023-04-06T03:11:15.711Z,12.23
2023-04-06T03:12:18.482Z,12.25
2023-04-06T03:13:22.720Z,12.30
2023-04-06T03:14:28.160Z,12.33
2023-04-06T03:15:32.234Z,12.37
2023-04-06T03:16:36.916Z,12.42
2023-04-06T03:17:40.750Z,12.47
2023-04-06T03:18:44.875Z,12.53
2023-04-06T03:19:48.234Z,12.58
2023-04-06T03:20:50.856Z,12.61
2023-04-06T03:21:55.000Z,12.64
2023-04-06T03:22:58.973Z,12.67
2023-04-06T03:24:03.410Z,12.71
2023-04-06T03:25:06.964Z,12.71
2023-04-06T03:26:10.402Z,12.74
2023-04-06T03:27:13.062Z,12.76
2023-04-06T03:28:15.996Z,12.76
2023-04-06T03:29:23.008Z,12.75
2023-04-06T03:30:25.975Z,12.75
2023-04-06T03:31:28.738Z,12.73
2023-04-06T03:32:33.298Z,12.71
2023-04-06T03:33:35.877Z,12.70
2023-04-06T03:34:39.411Z,12.67
2023-04-06T03:35:41.786Z,12.64
2023-04-06T03:36:44.472Z,12.63
2023-04-06T03:37:46.818Z,12.62
2023-04-06T03:38:49.401Z,12.60
2023-04-06T03:39:53.177Z,12.59
2023-04-06T03:40:57.545Z,12.56
2023-04-06T03:42:01.885Z,12.54
2023-04-06T03:43:06.424Z,12.51
2023-04-06T03:44:10.471Z,12.49
2023-04-06T03:45:12.888Z,12.47
2023-04-06T03:46:17.318Z,12.44
2023-04-06T03:47:19.619Z,12.42
2023-04-06T03:48:22.321Z,12.40
2023-04-06T03:49:24.979Z,12.38
2023-04-06T03:50:29.567Z,12.36
2023-04-06T03:51:32.372Z,12.32
2023-04-06T03:52:35.908Z,12.32
2023-04-06T03:53:38.285Z,12.30
2023-04-06T03:54:40.607Z,12.30
2023-04-06T03:55:42.900Z,12.27
2023-04-06T03:56:46.065Z,12.26
2023-04-06T03:57:48.490Z,12.26
2023-04-06T03:58:50.793Z,12.24
2023-04-06T03:59:53.160Z,12.23
2023-04-06T04:00:56.172Z,12.22
2023-04-06T04:01:58.471Z,12.21
2023-04-06T04:03:00.890Z,12.20
2023-04-06T04:04:06.593Z,12.20
2023-04-06T04:05:10.097Z,12.18
2023-04-06T04:06:13.212Z,12.18
2023-04-06T04:07:17.371Z,12.19
2023-04-06T04:08:19.999Z,12.18
2023-04-06T04:09:22.295Z,12.20
2023-04-06T04:10:26.752Z,12.19
2023-04-06T04:11:29.065Z,12.20
2023-04-06T04:12:33.217Z,12.20
2023-04-06T04:13:35.893Z,12.20
2023-04-06T04:14:39.893Z,12.19
2023-04-06T04:15:42.177Z,12.18
2023-04-06T04:16:45.577Z,12.19
2023-04-06T04:17:48.664Z,12.21
2023-04-06T04:18:51.031Z,12.21
2023-04-06T04:19:53.356Z,12.22
2023-04-06T04:20:55.854Z,12.22
2023-04-06T04:21:58.576Z,12.23
2023-04-06T04:23:02.733Z,12.23
2023-04-06T04:24:06.876Z,12.23
2023-04-06T04:25:10.336Z,12.25
2023-04-06T04:26:14.842Z,12.26
2023-04-06T04:27:21.146Z,12.27
2023-04-06T04:28:25.181Z,12.28
2023-04-06T04:29:29.840Z,12.27
2023-04-06T04:30:34.381Z,12.29
2023-04-06T04:31:36.757Z,12.29
2023-04-06T04:32:40.971Z,12.31
2023-04-06T04:33:44.540Z,12.31
2023-04-06T04:34:48.681Z,12.29
2023-04-06T04:35:53.934Z,12.31
2023-04-06T04:36:57.370Z,12.31
2023-04-06T04:38:01.513Z,12.32
2023-04-06T04:39:04.384Z,12.32
2023-04-06T04:40:10.743Z,12.33
2023-04-06T04:41:26.974Z,12.32
2023-04-06T04:42:29.744Z,12.34
2023-04-06T04:43:33.152Z,12.35
2023-04-06T04:44:36.418Z,12.36
2023-04-06T04:45:39.386Z,12.37
2023-04-06T04:46:56.707Z,12.36
2023-04-06T04:48:01.558Z,12.38
2023-04-06T04:49:05.806Z,12.38
2023-04-06T04:50:10.302Z,12.37
2023-04-06T04:51:14.344Z,12.36
2023-04-06T04:53:49.597Z,12.50
2023-04-06T04:54:53.743Z,12.37
2023-04-06T04:56:00.671Z,12.37
2023-04-06T04:57:04.666Z,12.38
2023-04-06T04:58:14.807Z,12.40
2023-04-06T04:59:21.555Z,12.41
2023-04-06T05:00:26.334Z,12.42
2023-04-06T05:01:35.775Z,12.41
2023-04-06T05:02:36.306Z,12.41
2023-04-06T05:03:55.690Z,12.40
2023-04-06T05:04:58.275Z,12.42
2023-04-06T05:06:02.499Z,12.41
2023-04-06T05:07:08.164Z,12.40
2023-04-06T05:08:12.686Z,12.40
2023-04-06T05:09:19.959Z,12.39
2023-04-06T05:10:22.453Z,12.39
2023-04-06T05:11:26.597Z,12.39
2023-04-06T05:12:30.734Z,12.41
2023-04-06T05:13:38.162Z,12.41
2023-04-06T05:14:42.635Z,12.42
2023-04-06T05:15:46.892Z,12.44
2023-04-06T05:16:51.745Z,12.43
2023-04-06T05:17:56.034Z,12.44
2023-04-06T05:19:00.557Z,12.45
2023-04-06T05:20:06.278Z,12.45
2023-04-06T05:21:11.990Z,12.47
2023-04-06T05:22:21.754Z,12.48
2023-04-06T05:23:25.895Z,12.52
2023-04-06T05:24:29.027Z,12.52
2023-04-06T05:25:32.653Z,12.53
2023-04-06T05:26:37.086Z,12.53
2023-04-06T05:27:41.838Z,12.53
2023-04-06T05:28:46.148Z,12.54
2023-04-06T05:29:49.619Z,12.57
2023-04-06T05:30:53.476Z,12.58
2023-04-06T05:31:55.820Z,12.58
2023-04-06T05:32:58.165Z,12.59
2023-04-06T05:34:03.002Z,12.61
2023-04-06T05:35:07.820Z,12.63
2023-04-06T05:36:14.388Z,12.65
2023-04-06T05:37:17.776Z,12.68
2023-04-06T05:38:20.819Z,12.69
2023-04-06T05:39:23.464Z,12.71
2023-04-06T05:40:28.501Z,12.74
2023-04-06T05:41:30.880Z,12.74
2023-04-06T05:42:40.740Z,12.76
2023-04-06T05:43:43.742Z,12.77
2023-04-06T05:44:46.107Z,12.80
2023-04-06T05:45:50.209Z,12.83
2023-04-06T05:46:52.655Z,12.85
2023-04-06T05:47:55.311Z,12.87
2023-04-06T05:49:03.469Z,12.88
2023-04-06T05:50:08.749Z,12.90
2023-04-06T05:51:12.882Z,12.92
2023-04-06T05:52:17.017Z,12.93
2023-04-06T05:53:21.145Z,12.94
2023-04-06T05:54:25.317Z,12.96
2023-04-06T05:55:29.310Z,12.98
2023-04-06T05:56:33.779Z,12.99
2023-04-06T05:57:36.857Z,13.00
2023-04-06T05:58:40.091Z,13.00
2023-04-06T05:59:43.955Z,13.01
2023-04-06T06:00:47.882Z,13.03
2023-04-06T06:01:51.496Z,13.05
2023-04-06T06:02:55.037Z,13.05
2023-04-06T06:04:01.456Z,13.06
2023-04-06T06:05:04.542Z,13.07
2023-04-06T06:06:07.402Z,13.08
2023-04-06T06:07:17.410Z,13.09
2023-04-06T06:08:21.554Z,13.10
2023-04-06T06:09:24.247Z,13.10
2023-04-06T06:10:29.414Z,13.11
2023-04-06T06:11:31.804Z,13.12
2023-04-06T06:12:34.109Z,13.12
2023-04-06T06:13:36.487Z,13.14
2023-04-06T06:14:39.079Z,13.16
2023-04-06T06:15:42.419Z,13.18
2023-04-06T06:16:45.120Z,13.21
2023-04-06T06:17:48.459Z,13.22
2023-04-06T06:18:51.392Z,13.25
2023-04-06T06:19:54.639Z,13.28
2023-04-06T06:20:57.592Z,13.32
2023-04-06T06:22:00.442Z,13.38
2023-04-06T06:23:02.798Z,13.41
2023-04-06T06:24:07.210Z,13.45
2023-04-06T06:25:09.782Z,13.49
2023-04-06T06:26:12.519Z,13.54
2023-04-06T06:27:14.813Z,13.56
2023-04-06T06:28:17.094Z,13.60
2023-04-06T06:29:19.391Z,13.63
2023-04-06T06:30:23.493Z,13.66
2023-04-06T06:31:26.516Z,13.68
2023-04-06T06:32:30.390Z,13.70
2023-04-06T06:33:32.786Z,13.72
2023-04-06T06:34:36.041Z,13.73
2023-04-06T06:35:40.637Z,13.75
2023-04-06T06:36:44.046Z,13.76
2023-04-06T06:37:47.809Z,13.78
2023-04-06T06:38:51.954Z,13.78
2023-04-06T06:39:54.905Z,13.79
2023-04-06T06:40:58.854Z,13.80
2023-04-06T06:42:03.087Z,13.80
2023-04-06T06:44:29.157Z,13.93
2023-04-06T06:45:32.106Z,13.78
2023-04-06T06:46:34.927Z,13.79
2023-04-06T06:47:37.259Z,13.81
2023-04-06T06:48:40.766Z,13.82
2023-04-06T06:49:43.096Z,13.81
2023-04-06T06:50:48.371Z,13.80
2023-04-06T06:51:51.211Z,13.81
2023-04-06T06:52:53.596Z,13.81
2023-04-06T06:53:55.860Z,13.80
2023-04-06T06:54:58.164Z,13.79
2023-04-06T06:56:00.472Z,13.79
2023-04-06T06:57:02.995Z,13.78
2023-04-06T06:58:05.269Z,13.77
2023-04-06T06:59:08.444Z,13.74
2023-04-06T07:00:14.247Z,13.72
2023-04-06T07:01:16.701Z,13.70
2023-04-06T07:02:19.189Z,13.69
2023-04-06T07:03:22.749Z,13.68
2023-04-06T07:04:25.139Z,13.66
2023-04-06T07:05:28.953Z,13.64
2023-04-06T07:06:33.872Z,13.62
2023-04-06T07:07:36.174Z,13.62
2023-04-06T07:08:38.492Z,13.60
2023-04-06T07:09:41.095Z,13.58
2023-04-06T07:10:43.646Z,13.58
2023-04-06T07:11:45.942Z,13.58
2023-04-06T07:12:49.249Z,13.59
2023-04-06T07:13:51.576Z,13.59
2023-04-06T07:14:53.900Z,13.59
2023-04-06T07:15:56.190Z,13.60
2023-04-06T07:16:59.592Z,13.62
2023-04-06T07:18:02.067Z,13.62
2023-04-06T07:19:04.382Z,13.64
2023-04-06T07:20:07.681Z,13.65
2023-04-06T07:21:11.004Z,13.66
2023-04-06T07:22:13.914Z,13.68
2023-04-06T07:23:16.708Z,13.69
2023-04-06T07:24:20.135Z,13.69
2023-04-06T07:25:24.396Z,13.69
2023-04-06T07:26:28.477Z,13.70
2023-04-06T07:27:30.908Z,13.71
2023-04-06T07:28:33.196Z,13.72
2023-04-06T07:29:36.937Z,13.72
2023-04-06T07:30:40.562Z,13.72
2023-04-06T07:31:44.359Z,13.74
2023-04-06T07:32:46.854Z,13.75
2023-04-06T07:33:49.750Z,13.75
2023-04-06T07:34:52.673Z,13.76
2023-04-06T07:35:55.809Z,13.77
2023-04-06T07:36:58.529Z,13.77
2023-04-06T07:38:03.591Z,13.78
2023-04-06T07:39:06.355Z,13.78
2023-04-06T07:40:11.318Z,13.78
2023-04-06T07:41:14.367Z,13.80
2023-04-06T07:42:17.248Z,13.82
2023-04-06T07:43:19.648Z,13.82
2023-04-06T07:44:21.940Z,13.84
2023-04-06T07:45:24.336Z,13.86
2023-04-06T07:46:26.778Z,13.89
2023-04-06T07:47:29.965Z,13.91
2023-04-06T07:48:34.703Z,13.93
2023-04-06T07:49:37.477Z,13.97
2023-04-06T07:50:41.676Z,14.00
2023-04-06T07:51:44.781Z,14.03
2023-04-06T07:52:49.635Z,14.07
2023-04-06T07:53:52.469Z,14.11
2023-04-06T07:54:54.979Z,14.15
2023-04-06T07:56:00.592Z,14.19
2023-04-06T07:57:02.959Z,14.23
2023-04-06T07:58:05.282Z,14.29
2023-04-06T07:59:07.580Z,14.33
2023-04-06T08:00:12.333Z,14.39
2023-04-06T08:01:14.402Z,14.47
2023-04-06T08:02:16.713Z,14.52
2023-04-06T08:03:19.562Z,14.57
2023-04-06T08:04:23.142Z,14.62
2023-04-06T08:05:26.774Z,14.65
2023-04-06T08:06:32.175Z,14.69
2023-04-06T08:07:34.619Z,14.72
2023-04-06T08:08:36.910Z,14.73
2023-04-06T08:09:39.203Z,14.76
2023-04-06T08:10:41.797Z,14.78
2023-04-06T08:11:44.403Z,14.79
2023-04-06T08:12:46.690Z,14.81
2023-04-06T08:13:49.010Z,14.81
2023-04-06T08:14:51.308Z,14.82
2023-04-06T08:15:54.195Z,14.83
2023-04-06T08:16:56.991Z,14.85
2023-04-06T08:17:59.308Z,14.86
2023-04-06T08:19:01.631Z,14.89
2023-04-06T08:20:04.875Z,14.93
2023-04-06T08:21:07.902Z,15.01
2023-04-06T08:22:11.484Z,15.12
2023-04-06T08:23:13.873Z,15.23
2023-04-06T08:24:16.159Z,15.35
2023-04-06T08:25:18.881Z,15.48
2023-04-06T08:26:21.629Z,15.59
2023-04-06T08:27:26.071Z,15.68
2023-04-06T08:28:29.492Z,15.78
2023-04-06T08:29:31.854Z,15.90
2023-04-06T08:30:34.463Z,15.99
2023-04-06T08:31:36.737Z,16.07
2023-04-06T08:32:39.097Z,16.15
2023-04-06T08:33:41.464Z,16.19
2023-04-06T08:34:44.229Z,16.23
2023-04-06T08:35:46.574Z,16.24
2023-04-06T08:36:50.258Z,16.31
2023-04-06T08:37:52.622Z,16.32
2023-04-06T08:38:54.961Z,16.34
2023-04-06T08:39:58.656Z,16.37
2023-04-06T08:41:03.208Z,16.47
2023-04-06T08:42:09.132Z,16.52
2023-04-06T08:43:13.575Z,16.57
2023-04-06T08:44:17.975Z,16.66
2023-04-06T08:45:20.376Z,16.70
2023-04-06T08:46:25.285Z,16.74
2023-04-06T08:47:29.293Z,16.73
2023-04-06T08:48:32.473Z,16.70
2023-04-06T08:49:35.719Z,16.67
2023-04-06T08:50:39.373Z,16.62
2023-04-06T08:51:42.866Z,16.57
2023-04-06T08:52:48.947Z,16.51
2023-04-06T08:53:51.421Z,16.46
2023-04-06T08:54:54.096Z,16.40
2023-04-06T08:55:58.490Z,16.36
2023-04-06T08:57:02.377Z,16.31
2023-04-06T08:58:07.256Z,16.26
2023-04-06T08:59:09.704Z,16.22
2023-04-06T09:00:13.956Z,16.17
2023-04-06T09:01:18.951Z,16.13
2023-04-06T09:02:22.258Z,16.08
2023-04-06T09:03:27.115Z,16.04
2023-04-06T09:04:30.915Z,15.98
2023-04-06T09:05:34.549Z,15.94
2023-04-06T09:06:37.738Z,15.89
2023-04-06T09:07:40.504Z,15.83
2023-04-06T09:08:42.831Z,15.79
2023-04-06T09:09:45.804Z,15.73
2023-04-06T09:10:49.775Z,15.66
2023-04-06T09:11:53.748Z,15.60
2023-04-06T09:13:05.847Z,15.54
2023-04-06T09:14:08.537Z,15.48
2023-04-06T09:15:24.820Z,15.40
2023-04-06T09:16:28.911Z,15.34
2023-04-06T09:17:33.426Z,15.27
2023-04-06T09:18:35.775Z,15.21
2023-04-06T09:19:48.325Z,15.17
2023-04-06T09:21:02.285Z,15.13
2023-04-06T09:22:08.177Z,15.07
2023-04-06T09:23:19.562Z,15.05
2023-04-06T09:24:22.255Z,15.00
2023-04-06T09:25:25.984Z,14.95
2023-04-06T09:26:28.637Z,14.90
2023-04-06T09:27:36.549Z,14.88
2023-04-06T09:30:09.270Z,14.88
2023-04-06T09:31:13.348Z,14.70
2023-04-06T09:32:16.277Z,14.65
2023-04-06T09:33:24.670Z,14.59
2023-04-06T09:34:27.549Z,14.54
2023-04-06T09:35:31.075Z,14.52
2023-04-06T09:36:36.349Z,14.48
2023-04-06T09:37:39.103Z,14.44
2023-04-06T09:38:59.606Z,14.40
2023-04-06T09:40:07.761Z,14.37
2023-04-06T09:41:10.100Z,14.31
2023-04-06T09:42:27.127Z,14.27
2023-04-06T09:43:29.954Z,14.24
2023-04-06T09:44:32.320Z,14.21
2023-04-06T09:45:34.622Z,14.18
2023-04-06T09:46:58.038Z,14.17
2023-04-06T09:47:47.273Z,14.15
2023-04-06T09:48:51.322Z,14.15
2023-04-06T09:49:58.512Z,14.14
2023-04-06T09:51:04.037Z,14.13
2023-04-06T09:52:07.304Z,14.12
2023-04-06T09:53:10.604Z,14.11
2023-04-06T09:55:34.434Z,14.21
2023-04-06T09:56:48.697Z,14.08
2023-04-06T09:57:57.658Z,14.09
2023-04-06T09:59:03.615Z,14.09
2023-04-06T10:00:08.186Z,14.11
2023-04-06T10:01:13.233Z,14.09
2023-04-06T10:02:29.034Z,14.09
2023-04-06T10:03:38.403Z,14.08
2023-04-06T10:04:45.303Z,14.10
2023-04-06T10:05:56.783Z,14.12
2023-04-06T10:07:00.917Z,14.11
2023-04-06T10:09:22.192Z,14.21
2023-04-06T10:10:25.673Z,14.06
2023-04-06T10:11:28.849Z,14.06
2023-04-06T10:12:32.266Z,14.04
2023-04-06T10:13:34.619Z,14.03
2023-04-06T10:14:37.419Z,14.02
2023-04-06T10:15:39.873Z,14.02
2023-04-06T10:16:44.195Z,14.01
2023-04-06T10:17:46.652Z,14.00
2023-04-06T10:18:52.912Z,14.00
2023-04-06T10:21:13.697Z,14.08
2023-04-06T10:22:19.554Z,13.94
2023-04-06T10:24:38.324Z,14.04
2023-04-06T10:25:40.632Z,13.89
2023-04-06T10:26:45.407Z,13.89
2023-04-06T10:27:47.761Z,13.90
2023-04-06T10:28:51.500Z,13.91
2023-04-06T10:29:54.969Z,13.90
2023-04-06T10:31:00.156Z,13.90
2023-04-06T10:32:02.540Z,13.88
2023-04-06T10:33:18.266Z,13.86
2023-04-06T10:34:21.629Z,13.86
2023-04-06T10:35:24.718Z,13.84
2023-04-06T10:36:29.312Z,13.82
2023-04-06T10:37:35.789Z,13.80
2023-04-06T10:38:41.936Z,13.77
2023-04-06T10:39:50.041Z,13.76
2023-04-06T10:40:52.815Z,13.74
2023-04-06T10:41:55.200Z,13.75
2023-04-06T10:43:13.306Z,13.74
2023-04-06T10:44:23.635Z,13.73
2023-04-06T10:45:27.127Z,13.71
2023-04-06T10:46:32.254Z,13.71
2023-04-06T10:47:43.106Z,13.69
2023-04-06T10:48:46.233Z,13.68
2023-04-06T10:49:48.694Z,13.67
2023-04-06T10:50:54.586Z,13.65
2023-04-06T10:51:58.709Z,13.64
2023-04-06T10:53:03.043Z,13.65
2023-04-06T10:54:07.420Z,13.62
2023-04-06T10:55:10.153Z,13.62
2023-04-06T10:56:17.104Z,13.61
2023-04-06T10:57:23.068Z,13.60
2023-04-06T10:58:27.279Z,13.60
2023-04-06T10:59:30.964Z,13.60
2023-04-06T11:00:47.362Z,13.57
2023-04-06T11:01:38.224Z,13.59
2023-04-06T11:02:40.838Z,13.59
2023-04-06T11:03:51.810Z,13.57
2023-04-06T11:04:55.978Z,13.57
2023-04-06T11:05:58.322Z,13.57
2023-04-06T11:08:31.935Z,13.67
2023-04-06T11:09:34.649Z,13.54
2023-04-06T11:10:38.395Z,13.56
2023-04-06T11:11:41.850Z,13.56
2023-04-06T11:12:44.591Z,13.54
2023-04-06T11:13:55.912Z,13.52
2023-04-06T11:15:01.758Z,13.52
2023-04-06T11:16:04.923Z,13.50
2023-04-06T11:17:07.844Z,13.49
2023-04-06T11:18:12.220Z,13.49
2023-04-06T11:19:14.926Z,13.49
2023-04-06T11:20:19.368Z,13.48
2023-04-06T11:21:33.845Z,13.45
2023-04-06T11:22:36.181Z,13.44
2023-04-06T11:23:38.510Z,13.43
2023-04-06T11:24:43.339Z,13.43
2023-04-06T11:25:50.963Z,13.42
2023-04-06T11:27:13.626Z,13.42
2023-04-06T11:28:16.330Z,13.41
2023-04-06T11:29:24.277Z,13.45
2023-04-06T11:30:26.811Z,13.44
2023-04-06T11:31:29.111Z,13.45
2023-04-06T11:32:35.558Z,13.44
2023-04-06T11:33:39.099Z,13.45
2023-04-06T11:34:41.439Z,13.46
2023-04-06T11:35:43.719Z,13.47
2023-04-06T11:36:48.970Z,13.46
2023-04-06T11:37:51.969Z,13.45
2023-04-06T11:38:54.299Z,13.47
2023-04-06T11:39:57.117Z,13.47
2023-04-06T11:41:01.553Z,13.45
2023-04-06T11:42:06.159Z,13.45
2023-04-06T11:43:12.078Z,13.45
2023-04-06T11:44:14.397Z,13.44
2023-04-06T11:45:16.697Z,13.45
2023-04-06T11:46:19.743Z,13.43
2023-04-06T11:47:32.438Z,13.44
2023-04-06T11:48:38.536Z,13.42
2023-04-06T11:49:44.360Z,13.41
2023-04-06T11:50:48.592Z,13.40
2023-04-06T11:51:51.543Z,13.42
2023-04-06T11:53:01.249Z,13.42
2023-04-06T11:54:03.604Z,13.39
2023-04-06T11:55:15.559Z,13.38
2023-04-06T11:56:30.060Z,13.38
2023-04-06T11:57:32.373Z,13.38
2023-04-06T11:58:34.672Z,13.38
2023-04-06T11:59:37.092Z,13.39
2023-04-06T12:00:39.904Z,13.39
2023-04-06T12:01:46.770Z,13.39
2023-04-06T12:02:49.959Z,13.41
2023-04-06T12:03:54.476Z,13.41
2023-04-06T12:04:57.325Z,13.39
2023-04-06T12:05:59.935Z,13.38
2023-04-06T12:07:03.624Z,13.36
2023-04-06T12:08:06.269Z,13.34
2023-04-06T12:09:09.059Z,13.35
2023-04-06T12:11:24.753Z,13.46
2023-04-06T12:12:27.911Z,13.33
2023-04-06T12:13:30.857Z,13.34
2023-04-06T12:15:44.230Z,13.49
2023-04-06T12:16:46.645Z,13.36
2023-04-06T12:17:49.413Z,13.39
2023-04-06T12:18:51.850Z,13.40
2023-04-06T12:19:55.799Z,13.42
2023-04-06T12:20:58.616Z,13.42
2023-04-06T12:22:00.931Z,13.43
2023-04-06T12:23:03.732Z,13.43
2023-04-06T12:24:06.654Z,13.44
2023-04-06T12:25:09.172Z,13.44
2023-04-06T12:26:13.796Z,13.45
2023-04-06T12:27:16.175Z,13.44
2023-04-06T12:28:18.693Z,13.45
2023-04-06T12:29:21.521Z,13.45
2023-04-06T12:30:24.063Z,13.44
2023-04-06T12:31:26.370Z,13.44
2023-04-06T12:32:28.764Z,13.44
2023-04-06T12:33:31.106Z,13.44
2023-04-06T12:34:35.625Z,13.43
2023-04-06T12:35:39.035Z,13.44
2023-04-06T12:36:42.866Z,13.42
2023-04-06T12:37:45.258Z,13.43
2023-04-06T12:38:49.521Z,13.42
2023-04-06T12:39:53.333Z,13.41
2023-04-06T12:40:55.798Z,13.41
2023-04-06T12:41:58.502Z,13.40
2023-04-06T12:43:00.853Z,13.44
2023-04-06T12:44:03.746Z,13.52
2023-04-06T12:45:08.468Z,13.56
2023-04-06T12:46:11.459Z,13.57
2023-04-06T12:47:13.919Z,13.57
2023-04-06T12:48:16.620Z,13.56
2023-04-06T12:49:18.982Z,13.55
2023-04-06T12:50:21.528Z,13.53
2023-04-06T12:51:24.938Z,13.51
2023-04-06T12:52:27.266Z,13.50
2023-04-06T12:53:29.464Z,13.47
2023-04-06T12:54:32.328Z,13.45
2023-04-06T12:55:35.198Z,13.45
2023-04-06T12:56:38.244Z,13.44
2023-04-06T12:57:40.564Z,13.42
2023-04-06T12:58:43.282Z,13.42
2023-04-06T12:59:46.116Z,13.41
2023-04-06T13:00:50.497Z,13.40
2023-04-06T13:01:53.165Z,13.41
2023-04-06T13:02:55.497Z,13.38
2023-04-06T13:03:58.023Z,13.37
2023-04-06T13:05:00.848Z,13.37
2023-04-06T13:06:03.636Z,13.36
2023-04-06T13:07:06.485Z,13.36
2023-04-06T13:08:08.843Z,13.36
2023-04-06T13:09:11.151Z,13.36
2023-04-06T13:10:14.442Z,13.36
2023-04-06T13:11:17.333Z,13.37
2023-04-06T13:12:19.671Z,13.39
2023-04-06T13:13:24.556Z,13.39
2023-04-06T13:14:26.902Z,13.40
2023-04-06T13:15:30.103Z,13.40
2023-04-06T13:16:32.579Z,13.40
2023-04-06T13:17:34.968Z,13.39
2023-04-06T13:18:39.030Z,13.41
2023-04-06T13:19:42.426Z,13.41
2023-04-06T13:20:46.707Z,13.42
2023-04-06T13:21:49.072Z,13.40
2023-04-06T13:22:51.369Z,13.42
2023-04-06T13:23:54.727Z,13.43
2023-04-06T13:24:57.069Z,13.43
2023-04-06T13:26:05.016Z,13.45
2023-04-06T13:27:08.261Z,13.44
2023-04-06T13:28:11.230Z,13.46
2023-04-06T13:29:13.901Z,13.47
2023-04-06T13:30:18.461Z,13.48
2023-04-06T13:31:21.835Z,13.48
2023-04-06T13:32:24.299Z,13.48
2023-04-06T13:33:27.366Z,13.48
2023-04-06T13:34:29.750Z,13.48
2023-04-06T13:35:32.326Z,13.50
2023-04-06T13:36:34.995Z,13.51
2023-04-06T13:37:39.339Z,13.50
2023-04-06T13:38:42.884Z,13.51
2023-04-06T13:39:45.691Z,13.52
2023-04-06T13:40:49.972Z,13.51
2023-04-06T13:41:54.794Z,13.52
2023-04-06T13:42:57.162Z,13.52
2023-04-06T13:43:59.461Z,13.53
2023-04-06T13:45:02.599Z,13.55
2023-04-06T13:46:05.441Z,13.56
2023-04-06T13:47:08.831Z,13.58
2023-04-06T13:48:11.224Z,13.58
2023-04-06T13:49:14.413Z,13.59
2023-04-06T13:50:17.470Z,13.61
2023-04-06T13:51:19.848Z,13.62
2023-04-06T13:52:22.453Z,13.65
2023-04-06T13:53:24.934Z,13.66
2023-04-06T13:54:27.455Z,13.66
2023-04-06T13:55:29.418Z,13.67
2023-04-06T13:56:31.665Z,13.68
2023-04-06T13:57:33.858Z,13.69
2023-04-06T13:58:35.911Z,13.70